sensor_id;sensor_type;location;lat;lon;timestamp;pressure;altitude;pressure_sealevel;temperature;humidity
80509;BME280;69838;52.602;13.434;2023-07-31T00:00:29;100646.53;;;13.55;95.63
80509;BME280;69838;52.602;13.434;2023-07-31T00:01:15;100645.78;;;13.53;95.96
80509;BME280;69838;52.602;13.434;2023-07-31T00:02:00;100645.88;;;13.52;95.49
80509;BME280;69838;52.602;13.434;2023-07-31T00:02:45;100639.75;;;13.48;95.56
80509;BME280;69838;52.602;13.434;2023-07-31T00:03:30;100642.47;;;13.48;95.67
80509;BME280;69838;52.602;13.434;2023-07-31T00:04:16;100643.66;;;13.44;96.21
80509;BME280;69838;52.602;13.434;2023-07-31T00:05:01;100645.66;;;13.41;96.09
80509;BME280;69838;52.602;13.434;2023-07-31T00:05:46;100645.00;;;13.37;97.45
80509;BME280;69838;52.602;13.434;2023-07-31T00:06:31;100642.47;;;13.34;96.19
80509;BME280;69838;52.602;13.434;2023-07-31T00:07:17;100647.88;;;13.34;96.02
80509;BME280;69838;52.602;13.434;2023-07-31T00:08:03;100634.25;;;13.35;95.94
80509;BME280;69838;52.602;13.434;2023-07-31T00:08:48;100639.75;;;13.34;95.94
80509;BME280;69838;52.602;13.434;2023-07-31T00:09:33;100635.19;;;13.34;95.67
80509;BME280;69838;52.602;13.434;2023-07-31T00:10:19;100638.97;;;13.32;95.97
80509;BME280;69838;52.602;13.434;2023-07-31T00:11:04;100627.41;;;13.28;96.53
80509;BME280;69838;52.602;13.434;2023-07-31T00:11:49;100638.44;;;13.25;96.44
80509;BME280;69838;52.602;13.434;2023-07-31T00:12:34;100639.41;;;13.24;96.70
80509;BME280;69838;52.602;13.434;2023-07-31T00:13:20;100630.56;;;13.21;96.53
80509;BME280;69838;52.602;13.434;2023-07-31T00:14:05;100638.91;;;13.17;96.54
80509;BME280;69838;52.602;13.434;2023-07-31T00:14:51;100636.38;;;13.14;96.76
80509;BME280;69838;52.602;13.434;2023-07-31T00:15:36;100634.63;;;13.13;96.63
80509;BME280;69838;52.602;13.434;2023-07-31T00:16:21;100632.72;;;13.15;96.39
80509;BME280;69838;52.602;13.434;2023-07-31T00:17:06;100624.78;;;13.12;96.74
80509;BME280;69838;52.602;13.434;2023-07-31T00:17:52;100629.22;;;13.13;96.63
80509;BME280;69838;52.602;13.434;2023-07-31T00:18:37;100630.97;;;13.14;96.37
80509;BME280;69838;52.602;13.434;2023-07-31T00:19:22;100628.34;;;13.13;96.64
80509;BME280;69838;52.602;13.434;2023-07-31T00:20:08;100625.53;;;13.14;96.40
80509;BME280;69838;52.602;13.434;2023-07-31T00:20:53;100623.78;;;13.13;96.47
80509;BME280;69838;52.602;13.434;2023-07-31T00:21:38;100624.88;;;13.11;96.61
80509;BME280;69838;52.602;13.434;2023-07-31T00:22:24;100620.41;;;13.10;96.86
80509;BME280;69838;52.602;13.434;2023-07-31T00:23:09;100622.31;;;13.08;97.08
80509;BME280;69838;52.602;13.434;2023-07-31T00:23:54;100623.22;;;13.08;96.82
80509;BME280;69838;52.602;13.434;2023-07-31T00:24:39;100621.47;;;13.07;96.95
80509;BME280;69838;52.602;13.434;2023-07-31T00:25:24;100622.25;;;13.09;96.72
80509;BME280;69838;52.602;13.434;2023-07-31T00:26:10;100621.28;;;13.10;96.82
80509;BME280;69838;52.602;13.434;2023-07-31T00:26:55;100625.72;;;13.11;96.62
80509;BME280;69838;52.602;13.434;2023-07-31T00:27:40;100633.84;;;13.11;96.79
80509;BME280;69838;52.602;13.434;2023-07-31T00:28:29;100622.94;;;13.13;96.78
80509;BME280;69838;52.602;13.434;2023-07-31T00:29:14;100625.63;;;13.13;96.83
80509;BME280;69838;52.602;13.434;2023-07-31T00:29:59;100622.16;;;13.11;96.98
80509;BME280;69838;52.602;13.434;2023-07-31T00:30:45;100622.16;;;13.11;97.20
80509;BME280;69838;52.602;13.434;2023-07-31T00:31:30;100627.31;;;13.15;96.63
80509;BME280;69838;52.602;13.434;2023-07-31T00:32:15;100612.41;;;13.23;96.17
80509;BME280;69838;52.602;13.434;2023-07-31T00:33:00;100617.81;;;13.23;96.25
80509;BME280;69838;52.602;13.434;2023-07-31T00:33:46;100624.03;;;13.25;96.04
80509;BME280;69838;52.602;13.434;2023-07-31T00:34:31;100614.03;;;13.25;96.17
80509;BME280;69838;52.602;13.434;2023-07-31T00:35:16;100613.94;;;13.27;96.06
80509;BME280;69838;52.602;13.434;2023-07-31T00:36:02;100620.94;;;13.31;95.61
80509;BME280;69838;52.602;13.434;2023-07-31T00:36:47;100614.72;;;13.29;95.68
80509;BME280;69838;52.602;13.434;2023-07-31T00:37:32;100616.66;;;13.27;95.81
80509;BME280;69838;52.602;13.434;2023-07-31T00:38:17;100614.81;;;13.27;95.51
80509;BME280;69838;52.602;13.434;2023-07-31T00:39:03;100617.44;;;13.29;95.67
80509;BME280;69838;52.602;13.434;2023-07-31T00:39:49;100614.81;;;13.27;95.58
80509;BME280;69838;52.602;13.434;2023-07-31T00:40:37;100609.47;;;13.26;95.69
80509;BME280;69838;52.602;13.434;2023-07-31T00:41:22;100619.47;;;13.25;95.75
80509;BME280;69838;52.602;13.434;2023-07-31T00:42:07;100615.88;;;13.25;95.77
80509;BME280;69838;52.602;13.434;2023-07-31T00:42:53;100614.13;;;13.24;95.96
80509;BME280;69838;52.602;13.434;2023-07-31T00:43:38;100614.03;;;13.25;96.11
80509;BME280;69838;52.602;13.434;2023-07-31T00:44:23;100613.94;;;13.27;95.85
80509;BME280;69838;52.602;13.434;2023-07-31T00:45:09;100609.47;;;13.26;95.55
80509;BME280;69838;52.602;13.434;2023-07-31T00:45:54;100609.31;;;13.29;95.45
80509;BME280;69838;52.602;13.434;2023-07-31T00:46:39;100605.47;;;13.33;94.90
80509;BME280;69838;52.602;13.434;2023-07-31T00:47:25;100606.34;;;13.33;95.33
80509;BME280;69838;52.602;13.434;2023-07-31T00:48:10;100600.81;;;13.35;95.18
80509;BME280;69838;52.602;13.434;2023-07-31T00:48:56;100607.03;;;13.37;94.93
80509;BME280;69838;52.602;13.434;2023-07-31T00:49:42;100613.22;;;13.39;94.76
80509;BME280;69838;52.602;13.434;2023-07-31T00:50:28;100612.06;;;13.43;94.16
80509;BME280;69838;52.602;13.434;2023-07-31T00:51:13;100604.78;;;13.44;94.17
80509;BME280;69838;52.602;13.434;2023-07-31T00:51:59;100610.88;;;13.47;94.29
80509;BME280;69838;52.602;13.434;2023-07-31T00:52:44;100602.84;;;13.46;94.13
80509;BME280;69838;52.602;13.434;2023-07-31T00:53:29;100611.66;;;13.49;93.80
80509;BME280;69838;52.602;13.434;2023-07-31T00:54:15;100608.09;;;13.49;94.39
80509;BME280;69838;52.602;13.434;2023-07-31T00:55:01;100606.22;;;13.49;94.39
80509;BME280;69838;52.602;13.434;2023-07-31T00:55:46;100604.41;;;13.50;94.09
80509;BME280;69838;52.602;13.434;2023-07-31T00:56:32;100607.22;;;13.48;94.26
80509;BME280;69838;52.602;13.434;2023-07-31T00:57:17;100603.53;;;13.49;94.28
80509;BME280;69838;52.602;13.434;2023-07-31T00:58:02;100601.78;;;13.48;94.34
80509;BME280;69838;52.602;13.434;2023-07-31T00:58:47;100595.50;;;13.48;94.31
80509;BME280;69838;52.602;13.434;2023-07-31T00:59:33;100594.63;;;13.47;94.65
80509;BME280;69838;52.602;13.434;2023-07-31T01:00:18;100596.38;;;13.48;96.82
80509;BME280;69838;52.602;13.434;2023-07-31T01:01:04;100598.09;;;13.49;94.51
80509;BME280;69838;52.602;13.434;2023-07-31T01:01:49;100594.44;;;13.50;95.17
80509;BME280;69838;52.602;13.434;2023-07-31T01:02:35;100600.72;;;13.51;94.92
80509;BME280;69838;52.602;13.434;2023-07-31T01:03:20;100601.63;;;13.51;94.54
80509;BME280;69838;52.602;13.434;2023-07-31T01:04:06;100596.19;;;13.51;94.58
80509;BME280;69838;52.602;13.434;2023-07-31T01:04:52;100601.41;;;13.54;94.30
80509;BME280;69838;52.602;13.434;2023-07-31T01:07:44;100598.41;;;13.59;94.03
80509;BME280;69838;52.602;13.434;2023-07-31T01:08:42;100597.13;;;13.65;93.59
80509;BME280;69838;52.602;13.434;2023-07-31T01:09:37;100595.19;;;13.67;93.17
80509;BME280;69838;52.602;13.434;2023-07-31T01:10:28;100596.72;;;13.71;93.30
80509;BME280;69838;52.602;13.434;2023-07-31T01:11:19;100595.00;;;13.70;93.84
80509;BME280;69838;52.602;13.434;2023-07-31T01:12:07;100596.72;;;13.71;93.85
80509;BME280;69838;52.602;13.434;2023-07-31T01:12:56;100598.50;;;13.72;93.30
80509;BME280;69838;52.602;13.434;2023-07-31T01:13:42;100594.81;;;13.73;93.46
80509;BME280;69838;52.602;13.434;2023-07-31T01:14:29;100589.41;;;13.73;93.71
80509;BME280;69838;52.602;13.434;2023-07-31T01:15:14;100590.16;;;13.75;93.08
80509;BME280;69838;52.602;13.434;2023-07-31T01:16:00;100594.59;;;13.76;93.27
80509;BME280;69838;52.602;13.434;2023-07-31T01:16:45;100583.75;;;13.76;93.04
80509;BME280;69838;52.602;13.434;2023-07-31T01:17:30;100587.22;;;13.78;92.93
80509;BME280;69838;52.602;13.434;2023-07-31T01:18:15;100591.50;;;13.82;92.83
80509;BME280;69838;52.602;13.434;2023-07-31T01:19:01;100583.38;;;13.82;92.95
80509;BME280;69838;52.602;13.434;2023-07-31T01:19:47;100585.09;;;13.83;92.35
80509;BME280;69838;52.602;13.434;2023-07-31T01:20:33;100579.66;;;13.83;93.05
80509;BME280;69838;52.602;13.434;2023-07-31T01:22:33;100588.69;;;13.84;93.49
80509;BME280;69838;52.602;13.434;2023-07-31T01:23:47;100577.72;;;13.85;93.39
80509;BME280;69838;52.602;13.434;2023-07-31T01:24:59;100574.25;;;13.83;92.89
80509;BME280;69838;52.602;13.434;2023-07-31T01:25:54;100583.16;;;13.85;93.37
80509;BME280;69838;52.602;13.434;2023-07-31T01:26:40;100580.34;;;13.87;93.12
80509;BME280;69838;52.602;13.434;2023-07-31T01:27:31;100581.22;;;13.87;93.29
80509;BME280;69838;52.602;13.434;2023-07-31T01:28:25;100585.66;;;13.88;93.14
80509;BME280;69838;52.602;13.434;2023-07-31T01:29:32;100585.66;;;13.88;92.90
80509;BME280;69838;52.602;13.434;2023-07-31T01:30:24;100582.00;;;13.89;93.04
80509;BME280;69838;52.602;13.434;2023-07-31T01:31:14;100582.97;;;13.88;93.48
80509;BME280;69838;52.602;13.434;2023-07-31T01:32:02;100581.00;;;13.90;93.63
80509;BME280;69838;52.602;13.434;2023-07-31T01:32:49;100582.75;;;13.91;93.43
80509;BME280;69838;52.602;13.434;2023-07-31T01:33:36;100582.56;;;13.94;92.65
80509;BME280;69838;52.602;13.434;2023-07-31T01:34:23;100585.28;;;13.94;93.25
80509;BME280;69838;52.602;13.434;2023-07-31T01:35:08;100592.34;;;13.97;93.86
80509;BME280;69838;52.602;13.434;2023-07-31T01:35:54;100589.53;;;13.99;92.85
80509;BME280;69838;52.602;13.434;2023-07-31T01:36:39;100586.72;;;14.00;92.79
80509;BME280;69838;52.602;13.434;2023-07-31T01:37:28;100585.84;;;14.00;92.94
80509;BME280;69838;52.602;13.434;2023-07-31T01:38:14;100593.00;;;14.01;93.35
80509;BME280;69838;52.602;13.434;2023-07-31T01:39:00;100588.53;;;14.00;93.88
80509;BME280;69838;52.602;13.434;2023-07-31T01:39:46;100589.53;;;13.99;93.31
80509;BME280;69838;52.602;13.434;2023-07-31T01:40:31;100598.44;;;14.01;93.31
80509;BME280;69838;52.602;13.434;2023-07-31T01:41:19;100592.06;;;14.02;92.72
80509;BME280;69838;52.602;13.434;2023-07-31T01:42:04;100596.50;;;14.03;93.25
80509;BME280;69838;52.602;13.434;2023-07-31T01:42:50;100591.06;;;14.03;93.53
80509;BME280;69838;52.602;13.434;2023-07-31T01:43:35;100588.34;;;14.03;92.91
80509;BME280;69838;52.602;13.434;2023-07-31T01:44:20;100595.53;;;14.04;93.54
80509;BME280;69838;52.602;13.434;2023-07-31T01:45:06;100582.94;;;14.03;93.53
80509;BME280;69838;52.602;13.434;2023-07-31T01:45:51;100583.69;;;14.05;93.12
80509;BME280;69838;52.602;13.434;2023-07-31T01:46:36;100586.31;;;14.06;92.66
80509;BME280;69838;52.602;13.434;2023-07-31T01:47:21;100584.50;;;14.07;93.43
80509;BME280;69838;52.602;13.434;2023-07-31T01:48:08;100587.22;;;14.07;93.38
80509;BME280;69838;52.602;13.434;2023-07-31T01:48:53;100586.31;;;14.06;93.97
80509;BME280;69838;52.602;13.434;2023-07-31T01:49:39;100586.31;;;14.06;94.29
80509;BME280;69838;52.602;13.434;2023-07-31T01:50:24;100586.31;;;14.06;93.49
80509;BME280;69838;52.602;13.434;2023-07-31T01:51:09;100582.84;;;14.04;94.21
80509;BME280;69838;52.602;13.434;2023-07-31T01:51:54;100580.22;;;14.03;94.46
80509;BME280;69838;52.602;13.434;2023-07-31T01:52:40;100587.59;;;14.01;94.03
80509;BME280;69838;52.602;13.434;2023-07-31T01:53:25;100592.16;;;14.00;94.41
80509;BME280;69838;52.602;13.434;2023-07-31T01:54:10;100584.09;;;13.99;94.50
80509;BME280;69838;52.602;13.434;2023-07-31T01:54:56;100585.84;;;14.00;94.62
80509;BME280;69838;52.602;13.434;2023-07-31T01:55:41;100589.53;;;13.99;94.91
80509;BME280;69838;52.602;13.434;2023-07-31T01:56:26;100582.34;;;13.98;94.72
80509;BME280;69838;52.602;13.434;2023-07-31T01:57:12;100582.56;;;13.94;94.75
80509;BME280;69838;52.602;13.434;2023-07-31T01:57:57;100579.06;;;13.92;95.15
80509;BME280;69838;52.602;13.434;2023-07-31T01:58:42;100581.00;;;13.90;95.34
80509;BME280;69838;52.602;13.434;2023-07-31T01:59:28;100573.75;;;13.91;95.09
80509;BME280;69838;52.602;13.434;2023-07-31T02:00:14;100579.28;;;13.89;95.49
80509;BME280;69838;52.602;13.434;2023-07-31T02:00:59;100564.94;;;13.87;95.47
80509;BME280;69838;52.602;13.434;2023-07-31T02:01:44;100576.56;;;13.89;94.80
80509;BME280;69838;52.602;13.434;2023-07-31T02:02:29;100569.38;;;13.88;94.83
80509;BME280;69838;52.602;13.434;2023-07-31T02:03:15;100571.16;;;13.89;94.91
80509;BME280;69838;52.602;13.434;2023-07-31T02:04:00;100571.16;;;13.89;95.34
80509;BME280;69838;52.602;13.434;2023-07-31T02:04:45;100566.69;;;13.88;95.27
80509;BME280;69838;52.602;13.434;2023-07-31T02:05:30;100568.44;;;13.89;95.19
80509;BME280;69838;52.602;13.434;2023-07-31T02:06:16;100569.28;;;13.90;94.85
80509;BME280;69838;52.602;13.434;2023-07-31T02:07:01;100570.25;;;13.89;95.33
80509;BME280;69838;52.602;13.434;2023-07-31T02:07:46;100568.44;;;13.89;95.62
80509;BME280;69838;52.602;13.434;2023-07-31T02:08:31;100572.00;;;13.90;95.26
80509;BME280;69838;52.602;13.434;2023-07-31T02:09:17;100565.81;;;13.88;95.57
80509;BME280;69838;52.602;13.434;2023-07-31T02:10:02;100565.81;;;13.88;95.33
80509;BME280;69838;52.602;13.434;2023-07-31T02:10:47;100568.44;;;13.89;95.52
80509;BME280;69838;52.602;13.434;2023-07-31T02:11:32;100577.53;;;13.88;95.69
80509;BME280;69838;52.602;13.434;2023-07-31T02:12:18;100569.38;;;13.88;95.83
80509;BME280;69838;52.602;13.434;2023-07-31T02:13:03;100566.78;;;13.87;95.35
80509;BME280;69838;52.602;13.434;2023-07-31T02:13:48;100566.69;;;13.88;95.08
80509;BME280;69838;52.602;13.434;2023-07-31T02:14:34;100564.94;;;13.87;95.27
80509;BME280;69838;52.602;13.434;2023-07-31T02:15:20;100562.13;;;13.89;96.36
80509;BME280;69838;52.602;13.434;2023-07-31T02:16:06;100559.31;;;13.90;96.87
80509;BME280;69838;52.602;13.434;2023-07-31T02:16:51;100562.78;;;13.92;98.02
80509;BME280;69838;52.602;13.434;2023-07-31T02:17:36;100559.22;;;13.92;98.59
80509;BME280;69838;52.602;13.434;2023-07-31T02:18:21;100566.28;;;13.94;99.05
80509;BME280;69838;52.602;13.434;2023-07-31T02:19:07;100558.91;;;13.97;98.95
80509;BME280;69838;52.602;13.434;2023-07-31T02:19:52;100561.72;;;13.95;98.54
80509;BME280;69838;52.602;13.434;2023-07-31T02:20:38;100560.88;;;13.94;98.95
80509;BME280;69838;52.602;13.434;2023-07-31T02:21:23;100564.34;;;13.97;99.47
80509;BME280;69838;52.602;13.434;2023-07-31T02:22:08;100557.16;;;13.96;99.92
80509;BME280;69838;52.602;13.434;2023-07-31T02:22:53;100555.44;;;13.94;99.89
80509;BME280;69838;52.602;13.434;2023-07-31T02:23:38;100555.44;;;13.94;99.33
80509;BME280;69838;52.602;13.434;2023-07-31T02:24:24;100552.81;;;13.93;99.77
80509;BME280;69838;52.602;13.434;2023-07-31T02:25:09;100549.22;;;13.92;99.88
80509;BME280;69838;52.602;13.434;2023-07-31T02:25:54;100548.66;;;13.87;100.00
80509;BME280;69838;52.602;13.434;2023-07-31T02:26:39;100553.78;;;13.92;100.00
80509;BME280;69838;52.602;13.434;2023-07-31T02:27:25;100547.59;;;13.90;100.00
80509;BME280;69838;52.602;13.434;2023-07-31T02:28:12;100549.53;;;13.88;100.00
80509;BME280;69838;52.602;13.434;2023-07-31T02:28:57;100551.16;;;13.90;100.00
80509;BME280;69838;52.602;13.434;2023-07-31T02:29:43;100546.91;;;13.86;100.00
80509;BME280;69838;52.602;13.434;2023-07-31T02:30:28;100545.97;;;13.87;100.00
80509;BME280;69838;52.602;13.434;2023-07-31T02:31:13;100552.34;;;13.86;100.00
80509;BME280;69838;52.602;13.434;2023-07-31T02:31:59;100548.78;;;13.86;100.00
80509;BME280;69838;52.602;13.434;2023-07-31T02:32:44;100546.91;;;13.86;100.00
80509;BME280;69838;52.602;13.434;2023-07-31T02:33:29;100546.06;;;13.86;100.00
80509;BME280;69838;52.602;13.434;2023-07-31T02:34:14;100538.97;;;13.83;100.00
80509;BME280;69838;52.602;13.434;2023-07-31T02:35:00;100542.44;;;13.85;100.00
80509;BME280;69838;52.602;13.434;2023-07-31T02:35:45;100545.06;;;13.87;100.00
80509;BME280;69838;52.602;13.434;2023-07-31T02:36:30;100548.00;;;13.84;100.00
80509;BME280;69838;52.602;13.434;2023-07-31T02:37:15;100544.31;;;13.85;100.00
80509;BME280;69838;52.602;13.434;2023-07-31T02:38:01;100544.50;;;13.82;100.00
80509;BME280;69838;52.602;13.434;2023-07-31T02:38:46;100547.34;;;13.80;100.00
80509;BME280;69838;52.602;13.434;2023-07-31T02:39:31;100544.72;;;13.79;100.00
80509;BME280;69838;52.602;13.434;2023-07-31T02:40:16;100551.97;;;13.78;100.00
80509;BME280;69838;52.602;13.434;2023-07-31T02:41:02;100546.66;;;13.77;100.00
80509;BME280;69838;52.602;13.434;2023-07-31T02:41:47;100544.81;;;13.77;100.00
80509;BME280;69838;52.602;13.434;2023-07-31T02:42:32;100551.19;;;13.76;100.00
80509;BME280;69838;52.602;13.434;2023-07-31T02:43:17;100545.00;;;13.74;100.00
80509;BME280;69838;52.602;13.434;2023-07-31T02:44:03;100545.88;;;13.74;100.00
80509;BME280;69838;52.602;13.434;2023-07-31T02:44:48;100552.28;;;13.73;100.00
80509;BME280;69838;52.602;13.434;2023-07-31T02:45:34;100550.53;;;13.72;100.00
80509;BME280;69838;52.602;13.434;2023-07-31T02:46:19;100545.31;;;13.69;100.00
80509;BME280;69838;52.602;13.434;2023-07-31T02:47:05;100547.91;;;13.71;100.00
80509;BME280;69838;52.602;13.434;2023-07-31T02:47:50;100541.72;;;13.69;100.00
80509;BME280;69838;52.602;13.434;2023-07-31T02:48:35;100546.19;;;13.70;100.00
80509;BME280;69838;52.602;13.434;2023-07-31T02:49:20;100546.19;;;13.70;100.00
80509;BME280;69838;52.602;13.434;2023-07-31T02:50:06;100543.56;;;13.68;100.00
80509;BME280;69838;52.602;13.434;2023-07-31T02:50:51;100542.59;;;13.69;100.00
80509;BME280;69838;52.602;13.434;2023-07-31T02:51:37;100536.19;;;13.70;100.00
80509;BME280;69838;52.602;13.434;2023-07-31T02:52:22;100542.47;;;13.71;100.00
80509;BME280;69838;52.602;13.434;2023-07-31T02:53:07;100543.38;;;13.71;100.00
80509;BME280;69838;52.602;13.434;2023-07-31T02:53:52;100547.03;;;13.70;100.00
80509;BME280;69838;52.602;13.434;2023-07-31T02:54:38;100539.00;;;13.69;100.00
80509;BME280;69838;52.602;13.434;2023-07-31T02:55:23;100544.41;;;13.69;100.00
80509;BME280;69838;52.602;13.434;2023-07-31T02:56:08;100542.69;;;13.68;100.00
80509;BME280;69838;52.602;13.434;2023-07-31T02:56:53;100541.53;;;13.72;100.00
80509;BME280;69838;52.602;13.434;2023-07-31T02:57:39;100538.81;;;13.72;100.00
80509;BME280;69838;52.602;13.434;2023-07-31T02:58:24;100537.06;;;13.71;100.00
80509;BME280;69838;52.602;13.434;2023-07-31T02:59:09;100536.97;;;13.72;100.00
80509;BME280;69838;52.602;13.434;2023-07-31T02:59:54;100533.19;;;13.75;100.00
80509;BME280;69838;52.602;13.434;2023-07-31T03:00:44;100538.63;;;13.75;100.00
80509;BME280;69838;52.602;13.434;2023-07-31T03:01:29;100538.63;;;13.75;100.00
80509;BME280;69838;52.602;13.434;2023-07-31T03:02:14;100530.66;;;13.72;100.00
80509;BME280;69838;52.602;13.434;2023-07-31T03:03:00;100541.22;;;13.77;100.00
80509;BME280;69838;52.602;13.434;2023-07-31T03:03:45;100538.41;;;13.78;100.00
80509;BME280;69838;52.602;13.434;2023-07-31T03:04:30;100533.88;;;13.79;100.00
80509;BME280;69838;52.602;13.434;2023-07-31T03:05:15;100536.47;;;13.80;100.00
80509;BME280;69838;52.602;13.434;2023-07-31T03:06:00;100525.16;;;13.73;100.00
80509;BME280;69838;52.602;13.434;2023-07-31T03:06:46;100536.47;;;13.80;100.00
80509;BME280;69838;52.602;13.434;2023-07-31T03:07:31;100535.59;;;13.80;100.00
80509;BME280;69838;52.602;13.434;2023-07-31T03:08:16;100532.97;;;13.78;100.00
80509;BME280;69838;52.602;13.434;2023-07-31T03:09:02;100532.19;;;13.76;100.00
80509;BME280;69838;52.602;13.434;2023-07-31T03:09:47;100537.53;;;13.78;100.00
80509;BME280;69838;52.602;13.434;2023-07-31T03:10:32;100533.97;;;13.77;100.00
80509;BME280;69838;52.602;13.434;2023-07-31T03:11:17;100534.81;;;13.78;100.00
80509;BME280;69838;52.602;13.434;2023-07-31T03:12:03;100538.41;;;13.78;100.00
80509;BME280;69838;52.602;13.434;2023-07-31T03:12:48;100534.72;;;13.79;100.00
80509;BME280;69838;52.602;13.434;2023-07-31T03:13:33;100534.72;;;13.79;100.00
80509;BME280;69838;52.602;13.434;2023-07-31T03:14:19;100531.25;;;13.77;100.00
80509;BME280;69838;52.602;13.434;2023-07-31T03:15:04;100528.44;;;13.79;100.00
80509;BME280;69838;52.602;13.434;2023-07-31T03:15:50;100528.44;;;13.79;100.00
80509;BME280;69838;52.602;13.434;2023-07-31T03:16:35;100530.25;;;13.78;100.00
80509;BME280;69838;52.602;13.434;2023-07-31T03:17:20;100525.81;;;13.77;100.00
80509;BME280;69838;52.602;13.434;2023-07-31T03:18:05;100527.78;;;13.75;100.00
80509;BME280;69838;52.602;13.434;2023-07-31T03:18:51;100531.25;;;13.77;100.00
80509;BME280;69838;52.602;13.434;2023-07-31T03:19:36;100527.66;;;13.77;100.00
80509;BME280;69838;52.602;13.434;2023-07-31T03:20:21;100520.50;;;13.75;100.00
80509;BME280;69838;52.602;13.434;2023-07-31T03:21:06;100525.91;;;13.75;100.00
80509;BME280;69838;52.602;13.434;2023-07-31T03:21:52;100524.06;;;13.76;100.00
80509;BME280;69838;52.602;13.434;2023-07-31T03:22:37;100524.06;;;13.76;100.00
80509;BME280;69838;52.602;13.434;2023-07-31T03:23:22;100530.56;;;13.73;100.00
80509;BME280;69838;52.602;13.434;2023-07-31T03:24:08;100526.19;;;13.71;100.00
80509;BME280;69838;52.602;13.434;2023-07-31T03:24:53;100522.72;;;13.69;100.00
80509;BME280;69838;52.602;13.434;2023-07-31T03:25:41;100521.88;;;13.68;100.00
80509;BME280;69838;52.602;13.434;2023-07-31T03:26:26;100528.38;;;13.66;100.00
80509;BME280;69838;52.602;13.434;2023-07-31T03:27:11;100525.53;;;13.67;100.00
80509;BME280;69838;52.602;13.434;2023-07-31T03:27:57;100529.22;;;13.66;100.00
80509;BME280;69838;52.602;13.434;2023-07-31T03:28:42;100521.19;;;13.65;100.00
80509;BME280;69838;52.602;13.434;2023-07-31T03:29:27;100520.22;;;13.66;100.00
80509;BME280;69838;52.602;13.434;2023-07-31T03:30:12;100519.25;;;13.67;100.00
80509;BME280;69838;52.602;13.434;2023-07-31T03:30:58;100517.53;;;13.66;100.00
80509;BME280;69838;52.602;13.434;2023-07-31T03:31:43;100522.72;;;13.69;100.00
80509;BME280;69838;52.602;13.434;2023-07-31T03:32:28;100519.06;;;13.70;100.00
80509;BME280;69838;52.602;13.434;2023-07-31T03:33:14;100511.88;;;13.69;100.00
80509;BME280;69838;52.602;13.434;2023-07-31T03:33:59;100509.94;;;13.71;100.00
80509;BME280;69838;52.602;13.434;2023-07-31T03:34:44;100512.53;;;13.72;100.00
80509;BME280;69838;52.602;13.434;2023-07-31T03:35:29;100513.44;;;13.73;100.00
80509;BME280;69838;52.602;13.434;2023-07-31T03:36:15;100514.97;;;13.77;100.00
80509;BME280;69838;52.602;13.434;2023-07-31T03:37:00;100507.88;;;13.74;100.00
80509;BME280;69838;52.602;13.434;2023-07-31T03:37:45;100514.97;;;13.77;100.00
80509;BME280;69838;52.602;13.434;2023-07-31T03:38:30;100512.06;;;13.80;100.00
80509;BME280;69838;52.602;13.434;2023-07-31T03:39:15;100500.53;;;13.77;100.00
80509;BME280;69838;52.602;13.434;2023-07-31T03:40:01;100508.78;;;13.75;100.00
80509;BME280;69838;52.602;13.434;2023-07-31T03:40:46;100516.03;;;13.74;100.00
80509;BME280;69838;52.602;13.434;2023-07-31T03:41:31;100505.16;;;13.74;100.00
80509;BME280;69838;52.602;13.434;2023-07-31T03:42:16;100500.63;;;13.75;100.00
80509;BME280;69838;52.602;13.434;2023-07-31T03:43:02;100502.38;;;13.76;100.00
80509;BME280;69838;52.602;13.434;2023-07-31T03:43:50;100494.13;;;13.78;100.00
80509;BME280;69838;52.602;13.434;2023-07-31T03:44:40;100508.47;;;13.80;100.00
80509;BME280;69838;52.602;13.434;2023-07-31T03:45:26;100497.59;;;13.80;100.00
80509;BME280;69838;52.602;13.434;2023-07-31T03:46:11;100500.22;;;13.81;100.00
80509;BME280;69838;52.602;13.434;2023-07-31T03:46:56;100499.25;;;13.82;100.00
80509;BME280;69838;52.602;13.434;2023-07-31T03:47:41;100493.84;;;13.82;100.00
80509;BME280;69838;52.602;13.434;2023-07-31T03:48:27;100491.13;;;13.82;100.00
80509;BME280;69838;52.602;13.434;2023-07-31T03:49:12;100497.41;;;13.83;100.00
80509;BME280;69838;52.602;13.434;2023-07-31T03:49:57;100493.84;;;13.82;100.00
80509;BME280;69838;52.602;13.434;2023-07-31T03:50:43;100487.50;;;13.82;100.00
80509;BME280;69838;52.602;13.434;2023-07-31T03:51:28;100490.03;;;13.85;100.00
80509;BME280;69838;52.602;13.434;2023-07-31T03:52:13;100490.03;;;13.85;100.00
80509;BME280;69838;52.602;13.434;2023-07-31T03:52:58;100487.41;;;13.83;100.00
80509;BME280;69838;52.602;13.434;2023-07-31T03:53:44;100490.91;;;13.85;100.00
80509;BME280;69838;52.602;13.434;2023-07-31T03:54:29;100488.97;;;13.87;100.00
80509;BME280;69838;52.602;13.434;2023-07-31T03:55:14;100486.25;;;13.87;100.00
80509;BME280;69838;52.602;13.434;2023-07-31T03:56:00;100478.13;;;13.87;100.00
80509;BME280;69838;52.602;13.434;2023-07-31T03:56:45;100487.78;;;13.91;99.45
80509;BME280;69838;52.602;13.434;2023-07-31T03:57:30;100488.34;;;13.97;98.58
80509;BME280;69838;52.602;13.434;2023-07-31T03:58:17;100496.28;;;14.00;98.91
80509;BME280;69838;52.602;13.434;2023-07-31T03:59:02;100490.75;;;14.01;98.94